Time;durP1;ratioP1;P1;durP2;ratioP2;P2;SDS_P1;SDS_P2;PMS_P1;PMS_P2;Temp;Humidity;BMP_temperature;BMP_pressure;BME280_temperature;BME280_humidity;BME280_pressure;Samples;Min_cycle;Max_cycle;Signal;HPM_P1;HPM_P2
2022/04/29 00:00:34;;;;;;;9.70;8.93;;;8.30;21.90;;;;;;5071426;28;20466;-75
2022/04/29 00:03:00;;;;;;;10.50;9.60;;;8.20;21.50;;;;;;5071648;28;20971;-74
2022/04/29 00:05:26;;;;;;;9.30;8.40;;;8.20;21.70;;;;;;5071765;28;20408;-74
2022/04/29 00:07:52;;;;;;;10.70;9.80;;;8.10;21.80;;;;;;5070050;28;20473;-74
2022/04/29 00:10:17;;;;;;;9.70;8.90;;;8.00;22.00;;;;;;5071474;28;20662;-74
2022/04/29 00:12:46;;;;;;;9.30;8.50;;;8.00;22.10;;;;;;5072751;28;20182;-73
2022/04/29 00:15:14;;;;;;;10.23;9.33;;;8.00;22.00;;;;;;5075579;28;20416;-73
2022/04/29 00:17:40;;;;;;;9.50;8.80;;;8.00;22.00;;;;;;5075334;28;20465;-73
2022/04/29 00:20:07;;;;;;;14.60;9.63;;;7.90;22.00;;;;;;5075496;28;20492;-74
2022/04/29 00:22:33;;;;;;;10.50;9.60;;;7.80;22.00;;;;;;5074102;28;20469;-74
2022/04/29 00:24:59;;;;;;;8.70;8.00;;;7.80;22.40;;;;;;5075285;28;20461;-75
2022/04/29 00:27:25;;;;;;;10.70;9.80;;;7.80;22.40;;;;;;5075297;28;20411;-74
2022/04/29 00:29:51;;;;;;;10.57;9.60;;;7.80;22.40;;;;;;5075292;28;20438;-75
2022/04/29 00:32:16;;;;;;;10.70;9.90;;;7.80;22.20;;;;;;5075603;28;20174;-75
2022/04/29 00:34:42;;;;;;;10.03;9.23;;;7.80;22.40;;;;;;5075259;28;20736;-75
2022/04/29 00:37:07;;;;;;;10.77;9.87;;;7.70;22.50;;;;;;5074943;28;20568;-75
2022/04/29 00:39:33;;;;;;;11.37;10.27;;;7.70;22.60;;;;;;5074965;28;20702;-74
2022/04/29 00:41:59;;;;;;;10.57;9.60;;;7.70;22.70;;;;;;5075067;28;20715;-74
2022/04/29 00:44:24;;;;;;;8.63;7.93;;;7.70;23.30;;;;;;5075028;28;20222;-75
2022/04/29 00:46:51;;;;;;;11.40;10.60;;;7.60;23.00;;;;;;5073588;28;20170;-74
2022/04/29 00:49:18;;;;;;;10.17;9.17;;;7.60;23.10;;;;;;5074637;28;20170;-75
2022/04/29 00:51:47;;;;;;;10.37;9.60;;;7.60;23.20;;;;;;5074794;28;20792;-75
2022/04/29 00:54:22;;;;;;;9.57;8.77;;;7.50;23.40;;;;;;5073433;28;20514;-75
2022/04/29 00:56:51;;;;;;;9.50;8.70;;;7.50;23.10;;;;;;5073518;28;20451;-74
2022/04/29 00:59:26;;;;;;;10.37;9.40;;;7.40;23.10;;;;;;5073071;28;20423;-74
2022/04/29 01:01:55;;;;;;;15.53;9.27;;;7.30;23.70;;;;;;5074770;28;20415;-75
2022/04/29 01:04:28;;;;;;;10.73;9.93;;;7.30;23.60;;;;;;5074514;28;20845;-74
2022/04/29 01:06:54;;;;;;;8.57;7.90;;;7.30;23.50;;;;;;5075002;28;20409;-74
2022/04/29 01:09:19;;;;;;;10.07;9.17;;;7.30;23.50;;;;;;5074612;28;20416;-74
2022/04/29 01:11:45;;;;;;;9.70;8.93;;;7.30;23.70;;;;;;5074698;28;20536;-76
2022/04/29 01:14:11;;;;;;;10.93;9.93;;;7.30;23.60;;;;;;5073287;28;20190;-74
2022/04/29 01:16:37;;;;;;;9.70;8.87;;;7.30;23.70;;;;;;5074552;28;20282;-74
2022/04/29 01:19:02;;;;;;;9.37;8.57;;;7.30;23.70;;;;;;5074193;28;20190;-74
2022/04/29 01:21:28;;;;;;;11.00;9.50;;;7.30;23.60;;;;;;5074319;28;20216;-74
2022/04/29 01:23:53;;;;;;;10.50;9.57;;;7.20;23.70;;;;;;5073871;28;20212;-75
2022/04/29 01:26:19;;;;;;;9.20;8.40;;;7.30;23.80;;;;;;5074024;28;20186;-74
2022/04/29 01:28:45;;;;;;;9.20;8.30;;;7.30;23.60;;;;;;5072807;28;20181;-74
2022/04/29 01:31:14;;;;;;;10.97;10.00;;;7.30;23.80;;;;;;5074788;28;20192;-75
2022/04/29 01:33:42;;;;;;;8.97;8.27;;;7.20;23.80;;;;;;5073994;28;20412;-75
2022/04/29 01:36:09;;;;;;;11.47;8.60;;;7.10;24.00;;;;;;5072736;28;20412;-75
2022/04/29 01:38:35;;;;;;;9.20;8.53;;;7.10;24.10;;;;;;5072595;28;20427;-75
2022/04/29 01:41:01;;;;;;;9.47;8.70;;;7.10;24.10;;;;;;5072609;28;20457;-74
2022/04/29 01:43:26;;;;;;;8.97;8.30;;;7.00;24.40;;;;;;5073961;28;20455;-75
2022/04/29 01:45:54;;;;;;;9.80;8.90;;;6.90;24.50;;;;;;5074070;28;20170;-74
2022/04/29 01:48:19;;;;;;;8.37;7.63;;;6.90;24.80;;;;;;5073561;28;20165;-74
2022/04/29 01:50:45;;;;;;;8.67;7.87;;;6.90;24.90;;;;;;5072461;28;20451;-75
2022/04/29 01:53:10;;;;;;;10.33;9.53;;;6.80;24.60;;;;;;5073892;28;20431;-76
2022/04/29 01:55:36;;;;;;;9.57;8.87;;;6.80;24.70;;;;;;5073816;28;20255;-74
2022/04/29 01:58:01;;;;;;;10.63;9.63;;;6.70;25.30;;;;;;5073583;28;20177;-74
2022/04/29 02:00:27;;;;;;;8.83;8.03;;;6.70;25.40;;;;;;5096130;22;20241;-72
2022/04/29 02:02:55;;;;;;;9.37;8.47;;;6.70;25.40;;;;;;5072533;28;20177;-72
2022/04/29 02:05:22;;;;;;;10.70;8.93;;;6.70;25.40;;;;;;5073712;28;20645;-72
2022/04/29 02:07:47;;;;;;;10.33;8.83;;;6.60;25.30;;;;;;5073486;28;20502;-72
2022/04/29 02:10:13;;;;;;;8.93;8.20;;;6.60;25.30;;;;;;5073470;28;20563;-72
2022/04/29 02:12:39;;;;;;;9.57;8.77;;;6.60;25.30;;;;;;5072133;28;20216;-72
2022/04/29 02:15:05;;;;;;;7.80;7.20;;;6.60;25.30;;;;;;5073455;28;20180;-72
2022/04/29 02:17:31;;;;;;;10.83;9.70;;;6.60;25.30;;;;;;5073136;28;20218;-73
2022/04/29 02:19:56;;;;;;;10.30;9.30;;;6.60;25.30;;;;;;5071917;28;20438;-73
2022/04/29 02:22:22;;;;;;;9.60;8.80;;;6.60;25.30;;;;;;5073205;28;20426;-73
2022/04/29 02:24:47;;;;;;;10.17;9.37;;;6.50;25.30;;;;;;5073559;28;20214;-73
2022/04/29 02:27:13;;;;;;;9.27;8.37;;;6.40;25.50;;;;;;5073661;28;20210;-73
2022/04/29 02:29:39;;;;;;;8.63;7.83;;;6.50;25.30;;;;;;5074038;28;20575;-73
2022/04/29 02:32:04;;;;;;;8.27;7.57;;;6.50;25.20;;;;;;5073400;28;20677;-73
2022/04/29 02:34:30;;;;;;;10.00;9.00;;;6.40;25.50;;;;;;5073001;28;20176;-73
2022/04/29 02:36:56;;;;;;;8.20;7.57;;;6.50;25.20;;;;;;5071954;28;20916;-73
2022/04/29 02:39:21;;;;;;;8.30;7.50;;;6.50;25.80;;;;;;5071427;28;20185;-73
2022/04/29 02:41:48;;;;;;;7.70;7.00;;;6.40;25.70;;;;;;5072723;28;20201;-73
2022/04/29 02:44:13;;;;;;;9.47;8.47;;;6.50;25.90;;;;;;5072788;28;20206;-73
2022/04/29 02:47:06;;;;;;;9.50;8.63;;;6.50;25.30;;;;;;5072687;28;20445;-73
2022/04/29 02:49:24;;;;;;;9.75;8.82;;;6.50;25.30;;;;;;5072241;28;20216;-73
2022/04/29 02:51:50;;;;;;;9.87;8.87;;;6.40;25.40;;;;;;5072550;28;20274;-73
2022/04/29 02:54:16;;;;;;;8.07;7.33;;;6.30;26.00;;;;;;5072451;28;20207;-73
2022/04/29 02:56:41;;;;;;;8.77;7.97;;;6.30;26.00;;;;;;5072566;28;20171;-73
2022/04/29 02:59:07;;;;;;;11.07;9.97;;;6.30;26.10;;;;;;5072155;28;20422;-73
2022/04/29 03:01:33;;;;;;;8.83;7.93;;;6.30;26.00;;;;;;5072346;28;20216;-76
2022/04/29 03:04:00;;;;;;;7.68;6.97;;;6.30;25.90;;;;;;5072532;28;20179;-75
2022/04/29 03:06:26;;;;;;;9.65;8.63;;;6.30;25.90;;;;;;5072448;28;20204;-76
2022/04/29 03:08:52;;;;;;;11.52;10.32;;;6.30;26.10;;;;;;5071018;28;20192;-75
2022/04/29 03:11:17;;;;;;;11.00;9.43;;;6.30;25.90;;;;;;5072407;28;20192;-75
2022/04/29 03:13:43;;;;;;;10.07;9.13;;;6.20;26.10;;;;;;5070996;28;20496;-75
2022/04/29 03:16:09;;;;;;;8.10;7.30;;;6.20;26.10;;;;;;5072338;28;20173;-76
2022/04/29 03:18:34;;;;;;;10.47;9.37;;;6.10;26.10;;;;;;5072023;28;20179;-75
2022/04/29 03:21:00;;;;;;;8.47;7.70;;;6.00;26.30;;;;;;5072207;28;20203;-75
2022/04/29 03:23:25;;;;;;;8.50;7.70;;;5.90;26.60;;;;;;5072184;28;20178;-75
2022/04/29 03:25:51;;;;;;;7.80;7.10;;;5.90;26.50;;;;;;5072607;28;20207;-76
2022/04/29 03:28:17;;;;;;;8.80;7.90;;;5.80;26.90;;;;;;5072005;28;20409;-74
2022/04/29 03:30:42;;;;;;;8.30;7.53;;;5.80;26.80;;;;;;5071964;28;20202;-75
2022/04/29 03:33:08;;;;;;;8.97;8.17;;;5.70;27.00;;;;;;5070876;28;20244;-74
2022/04/29 03:35:44;;;;;;;7.70;7.00;;;5.70;27.40;;;;;;5072066;28;20617;-74
2022/04/29 03:38:10;;;;;;;7.43;6.78;;;5.80;27.40;;;;;;5071798;28;20718;-75
2022/04/29 03:40:36;;;;;;;7.80;6.90;;;5.80;27.50;;;;;;5071866;28;20191;-76
2022/04/29 03:43:02;;;;;;;10.10;7.53;;;5.80;27.40;;;;;;5070700;28;20180;-75
2022/04/29 03:45:28;;;;;;;9.27;8.35;;;5.80;27.50;;;;;;5071883;28;20286;-76
2022/04/29 03:47:54;;;;;;;9.30;7.88;;;5.70;27.40;;;;;;5071251;28;20187;-75
2022/04/29 03:50:23;;;;;;;10.93;7.77;;;5.70;27.70;;;;;;5071760;28;20198;-76
2022/04/29 03:53:00;;;;;;;9.75;8.75;;;5.80;27.40;;;;;;5070706;28;20176;-74
2022/04/29 03:55:29;;;;;;;9.70;7.85;;;5.80;27.50;;;;;;5071762;28;20597;-75
2022/04/29 03:57:56;;;;;;;8.57;7.65;;;5.80;27.50;;;;;;5071930;28;20172;-74
2022/04/29 04:00:23;;;;;;;10.68;9.25;;;5.80;27.50;;;;;;5070367;28;20206;-75
2022/04/29 04:02:52;;;;;;;9.38;8.50;;;5.80;27.40;;;;;;5071802;28;20199;-74
2022/04/29 04:05:23;;;;;;;9.77;8.75;;;5.90;27.50;;;;;;5072362;28;20180;-72
2022/04/29 04:07:49;;;;;;;9.45;8.57;;;5.80;27.20;;;;;;5070154;28;20183;-75
2022/04/29 04:10:14;;;;;;;8.33;7.50;;;5.80;28.00;;;;;;5071709;28;20209;-76
2022/04/29 04:12:46;;;;;;;7.87;7.20;;;5.90;27.60;;;;;;5071800;28;20755;-75
2022/04/29 04:15:12;;;;;;;10.40;8.77;;;5.80;27.50;;;;;;5070344;28;20207;-76
2022/04/29 04:17:38;;;;;;;9.63;8.73;;;5.70;28.00;;;;;;5071411;28;20656;-75
2022/04/29 04:20:06;;;;;;;10.18;8.82;;;5.80;28.20;;;;;;5071564;28;20214;-75
2022/04/29 04:22:35;;;;;;;7.50;6.80;;;5.90;27.90;;;;;;5071598;28;20186;-74
2022/04/29 04:25:02;;;;;;;9.95;8.98;;;6.00;28.10;;;;;;5071563;28;20175;-74
2022/04/29 04:27:28;;;;;;;8.65;7.10;;;6.10;27.90;;;;;;5074287;28;20180;-72
2022/04/29 04:29:53;;;;;;;7.77;6.97;;;6.00;28.20;;;;;;5071678;28;20175;-72
2022/04/29 04:32:19;;;;;;;8.73;7.50;;;6.10;27.70;;;;;;5071450;28;20262;-72
2022/04/29 04:34:51;;;;;;;9.50;8.60;;;6.20;28.10;;;;;;5071264;28;20230;-72
2022/04/29 04:37:24;;;;;;;10.07;8.30;;;6.30;27.30;;;;;;5071374;28;20227;-72
2022/04/29 04:39:51;;;;;;;8.73;8.00;;;6.40;26.70;;;;;;5071384;28;20596;-72
2022/04/29 04:42:20;;;;;;;9.50;7.80;;;6.50;26.70;;;;;;5071368;28;20422;-72
2022/04/29 04:44:48;;;;;;;9.20;8.40;;;6.60;26.50;;;;;;5071471;28;20442;-72
2022/04/29 04:47:13;;;;;;;11.07;9.13;;;6.70;25.40;;;;;;5069774;28;20475;-72
2022/04/29 04:49:39;;;;;;;7.77;7.17;;;6.80;25.80;;;;;;5071281;28;20411;-72
2022/04/29 04:52:05;;;;;;;8.70;8.00;;;6.90;25.40;;;;;;5071301;28;20611;-72
2022/04/29 04:54:31;;;;;;;10.30;9.30;;;7.10;25.10;;;;;;5069935;28;20217;-72
2022/04/29 04:56:57;;;;;;;14.30;9.07;;;7.20;25.10;;;;;;5071341;28;20404;-72
2022/04/29 04:59:22;;;;;;;8.70;8.10;;;7.30;24.90;;;;;;5071578;28;20780;-72
2022/04/29 05:01:48;;;;;;;9.50;8.70;;;7.50;24.00;;;;;;5074576;28;20266;-71
2022/04/29 05:04:13;;;;;;;9.87;8.87;;;7.70;23.60;;;;;;5076307;28;20251;-74
2022/04/29 05:06:40;;;;;;;12.33;11.17;;;7.90;23.70;;;;;;5076811;28;20205;-75
2022/04/29 05:09:06;;;;;;;11.13;10.17;;;8.10;22.70;;;;;;5075021;28;20177;-74
2022/04/29 05:11:32;;;;;;;11.17;10.27;;;8.30;22.20;;;;;;5073976;28;20435;-73
2022/04/29 05:13:58;;;;;;;10.20;9.40;;;8.60;22.10;;;;;;5078043;28;20521;-74
2022/04/29 05:16:24;;;;;;;11.17;10.20;;;9.10;23.10;;;;;;5075276;28;20536;-74
2022/04/29 05:18:49;;;;;;;12.53;11.33;;;10.20;20.80;;;;;;5073329;28;20213;-76
2022/04/29 05:21:16;;;;;;;14.87;13.77;;;11.40;17.50;;;;;;5074546;28;20883;-76
2022/04/29 05:23:42;;;;;;;14.33;13.43;;;12.60;16.20;;;;;;5074650;28;20230;-76
2022/04/29 05:26:07;;;;;;;15.63;14.63;;;13.70;15.30;;;;;;5074452;28;20544;-76
2022/04/29 05:28:34;;;;;;;15.27;14.37;;;14.70;12.90;;;;;;5074249;28;20887;-74
2022/04/29 05:31:03;;;;;;;18.73;17.70;;;15.70;11.40;;;;;;5073594;28;20568;-76
2022/04/29 05:33:31;;;;;;;18.13;17.03;;;16.20;9.50;;;;;;5074528;28;20464;-73
2022/04/29 05:35:57;;;;;;;16.67;15.77;;;16.60;9.00;;;;;;5074459;28;20514;-76
2022/04/29 05:38:23;;;;;;;18.63;17.43;;;17.00;7.70;;;;;;5074072;28;20413;-76
2022/04/29 05:43:33;;;;;;;21.07;19.73;;;17.90;6.10;;;;;;5074300;28;20288;-72
2022/04/29 05:45:59;;;;;;;18.90;17.80;;;18.10;5.90;;;;;;5072810;28;20424;-72
2022/04/29 05:48:24;;;;;;;17.70;16.70;;;18.30;6.00;;;;;;5074372;28;20179;-72
2022/04/29 05:50:50;;;;;;;18.73;17.63;;;18.40;4.60;;;;;;5074230;28;20190;-72
2022/04/29 05:53:16;;;;;;;19.50;18.40;;;18.40;4.20;;;;;;5072928;28;20555;-73
2022/04/29 05:55:42;;;;;;;18.13;17.03;;;18.20;4.90;;;;;;5075043;28;20177;-73
2022/04/29 05:58:08;;;;;;;18.10;17.20;;;18.20;5.50;;;;;;5072442;28;20174;-73
2022/04/29 06:00:34;;;;;;;19.13;18.03;;;18.00;3.70;;;;;;5074417;28;20928;-73
2022/04/29 06:03:00;;;;;;;17.97;16.90;;;17.80;5.20;;;;;;5073887;28;20408;-74
2022/04/29 06:05:26;;;;;;;19.53;18.37;;;17.30;5.60;;;;;;5073851;28;20412;-73
2022/04/29 06:07:52;;;;;;;18.17;17.17;;;17.20;5.60;;;;;;5072742;28;20184;-74
2022/04/29 06:10:19;;;;;;;17.57;16.63;;;17.60;5.90;;;;;;5074337;28;20428;-74
2022/04/29 06:12:46;;;;;;;18.03;16.93;;;17.30;5.40;;;;;;5072288;28;20185;-74
2022/04/29 06:15:18;;;;;;;18.30;17.20;;;17.50;5.80;;;;;;5073686;28;20543;-74
2022/04/29 06:17:45;;;;;;;17.83;16.87;;;17.60;5.00;;;;;;5073378;28;20416;-74
2022/04/29 06:20:11;;;;;;;19.37;17.97;;;17.70;6.00;;;;;;5073276;28;20447;-74
2022/04/29 06:22:44;;;;;;;18.33;17.10;;;18.20;6.20;;;;;;5073305;28;20463;-74
2022/04/29 06:25:11;;;;;;;19.07;17.87;;;18.10;5.40;;;;;;5072133;28;20438;-74
2022/04/29 06:27:36;;;;;;;19.23;17.83;;;17.80;5.80;;;;;;5071759;28;20436;-74
2022/04/29 06:30:02;;;;;;;18.47;17.37;;;15.40;8.00;;;;;;5073166;28;20436;-75
2022/04/29 06:32:28;;;;;;;18.30;17.30;;;15.70;9.40;;;;;;5073214;28;20260;-73
2022/04/29 06:34:53;;;;;;;17.80;16.90;;;16.40;7.70;;;;;;5073267;28;20558;-74
2022/04/29 06:37:20;;;;;;;19.23;18.07;;;16.80;7.60;;;;;;5073118;28;20174;-73
2022/04/29 06:39:46;;;;;;;20.27;18.50;;;17.40;7.30;;;;;;5071742;28;20223;-74
2022/04/29 06:42:11;;;;;;;20.93;19.70;;;18.40;6.50;;;;;;5073050;28;20917;-73
2022/04/29 06:44:37;;;;;;;19.00;17.70;;;19.00;5.00;;;;;;5072806;28;20643;-73
2022/04/29 06:47:03;;;;;;;17.27;16.37;;;18.60;4.70;;;;;;5072905;28;20217;-73
2022/04/29 06:49:29;;;;;;;18.07;17.10;;;19.00;5.30;;;;;;5072808;28;20186;-75
2022/04/29 06:51:55;;;;;;;19.00;17.87;;;19.40;3.10;;;;;;5072708;28;20194;-75
2022/04/29 06:54:21;;;;;;;18.67;17.33;;;19.40;3.90;;;;;;5072606;28;20456;-75
2022/04/29 06:56:46;;;;;;;20.20;19.00;;;19.50;3.40;;;;;;5072672;28;20469;-75
2022/04/29 06:59:12;;;;;;;20.03;18.50;;;19.40;3.80;;;;;;5072646;28;20182;-74
2022/04/29 07:01:37;;;;;;;17.90;16.80;;;19.40;3.80;;;;;;5072648;28;20213;-74
2022/04/29 07:04:03;;;;;;;19.87;18.20;;;19.50;3.70;;;;;;5072648;28;20174;-74
2022/04/29 07:06:29;;;;;;;20.43;19.17;;;19.60;4.00;;;;;;5072637;28;20170;-74
2022/04/29 07:08:54;;;;;;;19.20;18.10;;;20.00;3.90;;;;;;5071016;28;20174;-74
2022/04/29 07:11:20;;;;;;;19.00;17.80;;;20.30;3.70;;;;;;5072558;28;20233;-74
2022/04/29 07:13:45;;;;;;;18.77;17.83;;;20.90;3.60;;;;;;5072465;28;20213;-74
2022/04/29 07:16:11;;;;;;;18.30;17.40;;;21.40;2.90;;;;;;5072511;28;20182;-74
2022/04/29 07:18:37;;;;;;;19.20;17.90;;;22.00;2.50;;;;;;5072482;28;20670;-74
2022/04/29 07:21:03;;;;;;;19.40;18.30;;;22.50;2.30;;;;;;5071546;28;20228;-73
2022/04/29 07:23:29;;;;;;;18.67;17.67;;;22.70;1.50;;;;;;5072268;28;20182;-74
2022/04/29 07:25:54;;;;;;;18.60;17.50;;;23.00;1.80;;;;;;5072171;28;20779;-74
2022/04/29 07:28:21;;;;;;;17.60;16.80;;;23.30;1.00;;;;;;5072085;28;20186;-74
2022/04/29 07:30:46;;;;;;;20.20;18.83;;;23.30;1.00;;;;;;5072375;28;20289;-76
2022/04/29 07:33:15;;;;;;;18.90;17.90;;;23.10;1.00;;;;;;5070581;28;20503;-75
2022/04/29 07:43:54;;;;;;;17.67;16.77;;;23.00;1.10;;;;;;5072510;28;20454;-75
2022/04/29 07:46:21;;;;;;;18.57;17.67;;;23.10;1.20;;;;;;5072056;28;20416;-75
2022/04/29 07:48:47;;;;;;;18.80;17.90;;;23.60;1.00;;;;;;5072011;28;20174;-75
2022/04/29 07:51:12;;;;;;;18.00;17.20;;;24.10;1.00;;;;;;5072234;28;20485;-76
2022/04/29 07:53:38;;;;;;;19.07;18.00;;;23.10;1.00;;;;;;5071937;28;20866;-75
2022/04/29 07:56:04;;;;;;;18.77;17.70;;;23.30;1.10;;;;;;5072047;28;20703;-75
2022/04/29 07:58:29;;;;;;;18.77;17.80;;;23.50;1.00;;;;;;5072166;28;20232;-74
2022/04/29 08:00:55;;;;;;;19.00;17.80;;;23.70;1.00;;;;;;5085374;22;20731;-75
2022/04/29 08:03:21;;;;;;;18.30;17.37;;;22.80;1.10;;;;;;5072419;28;20178;-76
2022/04/29 08:05:47;;;;;;;18.17;17.13;;;22.70;1.10;;;;;;5072455;28;20422;-75
2022/04/29 08:08:12;;;;;;;18.37;17.47;;;23.10;1.30;;;;;;5072573;28;20256;-76
2022/04/29 08:10:38;;;;;;;18.23;17.33;;;23.90;1.00;;;;;;5072497;28;20292;-76
2022/04/29 08:13:04;;;;;;;18.30;17.30;;;24.30;1.00;;;;;;5072544;28;20217;-77
2022/04/29 08:15:31;;;;;;;18.20;17.30;;;24.60;1.00;;;;;;5072534;28;20246;-76
2022/04/29 08:18:00;;;;;;;18.77;17.87;;;24.90;1.00;;;;;;5072355;28;20411;-76
2022/04/29 08:20:26;;;;;;;18.87;17.87;;;24.60;1.00;;;;;;5072378;28;20797;-76
2022/04/29 08:22:52;;;;;;;17.93;17.13;;;24.00;1.00;;;;;;5072396;28;20421;-76
2022/04/29 08:25:19;;;;;;;16.97;16.27;;;22.30;1.00;;;;;;5072341;28;20552;-76
2022/04/29 08:27:46;;;;;;;18.63;17.63;;;22.30;1.00;;;;;;5072010;28;20256;-76
2022/04/29 08:30:12;;;;;;;18.47;17.23;;;21.70;1.00;;;;;;5072344;28;20931;-76
2022/04/29 08:32:42;;;;;;;17.77;17.07;;;21.50;1.00;;;;;;5071699;28;20435;-76
2022/04/29 08:35:09;;;;;;;16.60;15.80;;;21.50;1.00;;;;;;5074526;28;20598;-75
2022/04/29 08:37:40;;;;;;;16.13;15.53;;;21.40;1.00;;;;;;5075715;28;20408;-75
2022/04/29 08:40:06;;;;;;;17.03;16.23;;;21.40;1.00;;;;;;5074706;28;20422;-74
2022/04/29 08:42:37;;;;;;;17.30;16.60;;;20.80;1.00;;;;;;5075669;28;20416;-76
2022/04/29 08:45:10;;;;;;;17.33;16.40;;;20.80;1.00;;;;;;5074610;28;20511;-75
2022/04/29 08:47:38;;;;;;;17.20;16.40;;;20.70;1.00;;;;;;5079817;28;20412;-75
2022/04/29 08:50:10;;;;;;;17.27;16.37;;;20.50;1.00;;;;;;5074535;28;20430;-75
2022/04/29 08:52:36;;;;;;;17.87;16.83;;;19.80;1.00;;;;;;5075788;28;20431;-75
2022/04/29 09:00:32;;;;;;;17.57;16.77;;;19.40;1.00;;;;;;5075239;28;20450;-75
2022/04/29 09:03:00;;;;;;;17.90;16.90;;;18.90;1.00;;;;;;5075411;28;20420;-76
2022/04/29 09:05:26;;;;;;;16.60;15.83;;;18.90;1.00;;;;;;5075305;28;20461;-75
2022/04/29 09:08:04;;;;;;;16.80;16.10;;;18.70;1.00;;;;;;5074640;28;20408;-76
2022/04/29 09:10:35;;;;;;;17.47;16.50;;;18.60;1.00;;;;;;5075068;28;20431;-75
2022/04/29 09:13:15;;;;;;;17.43;16.73;;;17.80;1.00;;;;;;5075164;28;20487;-76
2022/04/29 09:15:52;;;;;;;16.60;15.60;;;17.70;1.00;;;;;;5074932;28;20412;-76
2022/04/29 09:18:40;;;;;;;16.37;15.67;;;17.80;1.00;;;;;;5073678;28;20412;-76
2022/04/29 09:21:20;;;;;;;17.37;16.43;;;17.90;1.00;;;;;;5073825;28;20486;-76
2022/04/29 09:23:57;;;;;;;16.57;15.83;;;17.90;1.00;;;;;;5073809;28;20412;-76
2022/04/29 09:26:32;;;;;;;16.07;15.37;;;17.80;1.00;;;;;;5075039;28;20422;-76
2022/04/29 09:29:18;;;;;;;16.20;15.50;;;18.00;1.00;;;;;;5073221;28;20440;-76
2022/04/29 09:31:58;;;;;;;16.00;15.30;;;18.10;1.00;;;;;;5074530;28;20549;-76
2022/04/29 09:34:43;;;;;;;16.93;16.13;;;18.30;1.00;;;;;;5073492;28;20455;-76
2022/04/29 09:37:19;;;;;;;17.03;16.07;;;18.50;1.00;;;;;;5074311;28;20897;-76
2022/04/29 09:40:05;;;;;;;17.00;15.93;;;18.70;1.00;;;;;;5074490;28;20411;-76
2022/04/29 09:42:42;;;;;;;17.60;16.70;;;18.90;1.00;;;;;;5075246;28;20408;-76
2022/04/29 09:45:27;;;;;;;17.37;16.57;;;19.10;1.00;;;;;;5072893;28;20427;-76
2022/04/29 09:47:54;;;;;;;16.20;15.47;;;19.20;1.00;;;;;;5073967;28;20459;-76
2022/04/29 09:50:20;;;;;;;15.97;15.27;;;19.30;1.00;;;;;;5073453;28;20933;-76
2022/04/29 09:52:45;;;;;;;16.63;15.80;;;19.30;1.00;;;;;;5075273;28;20404;-76
2022/04/29 09:55:18;;;;;;;16.80;15.90;;;19.50;1.00;;;;;;5074857;28;20204;-75
2022/04/29 09:58:01;;;;;;;16.57;15.73;;;19.60;1.00;;;;;;5074125;28;20170;-75
2022/04/29 10:00:27;;;;;;;17.07;16.27;;;19.90;1.00;;;;;;5074405;28;20463;-76
2022/04/29 10:02:53;;;;;;;17.27;16.47;;;20.10;1.00;;;;;;5073027;28;20416;-75
2022/04/29 10:05:19;;;;;;;17.17;16.07;;;20.30;1.00;;;;;;5073120;28;20476;-75
2022/04/29 10:07:46;;;;;;;16.87;16.17;;;20.50;1.00;;;;;;5072911;28;20178;-75
2022/04/29 10:10:12;;;;;;;16.83;15.63;;;20.70;1.00;;;;;;5074463;28;20414;-76
2022/04/29 10:12:39;;;;;;;16.77;15.97;;;20.70;1.00;;;;;;5074200;28;20577;-76
2022/04/29 10:15:06;;;;;;;16.90;16.20;;;20.90;1.00;;;;;;5072777;28;21037;-76
2022/04/29 10:23:13;;;;;;;17.70;16.90;;;21.30;1.00;;;;;;5074250;28;20419;-76
2022/04/29 10:25:44;;;;;;;16.83;16.13;;;20.80;1.00;;;;;;5074276;28;20474;-76
2022/04/29 10:28:14;;;;;;;17.47;16.67;;;20.90;1.00;;;;;;5073450;28;20432;-76
2022/04/29 10:30:40;;;;;;;16.83;16.13;;;20.90;1.00;;;;;;5073744;28;20885;-76
2022/04/29 10:33:25;;;;;;;17.00;16.30;;;20.30;1.00;;;;;;5073901;28;20439;-76
2022/04/29 10:35:58;;;;;;;16.27;15.60;;;20.20;1.00;;;;;;5072633;28;20674;-76
2022/04/29 10:38:27;;;;;;;16.80;15.90;;;20.00;1.00;;;;;;5073438;28;20435;-76
2022/04/29 10:41:21;;;;;;;16.67;15.97;;;19.70;1.00;;;;;;5072258;28;20423;-76
2022/04/29 10:43:51;;;;;;;17.97;16.60;;;20.00;1.00;;;;;;5079078;28;20480;-76
2022/04/29 10:46:37;;;;;;;15.93;15.30;;;20.50;1.00;;;;;;5075002;28;20404;-76
2022/04/29 10:49:30;;;;;;;17.93;17.13;;;20.80;1.00;;;;;;5071965;28;20428;-76
2022/04/29 10:51:59;;;;;;;16.37;15.67;;;21.00;1.00;;;;;;5073479;28;20953;-76
2022/04/29 10:54:34;;;;;;;17.90;17.00;;;20.90;1.00;;;;;;5073523;28;20470;-76
2022/04/29 10:57:06;;;;;;;16.67;15.87;;;20.90;1.00;;;;;;5074600;28;20418;-76
2022/04/29 10:59:54;;;;;;;16.67;15.87;;;21.00;1.00;;;;;;5073266;28;20400;-76
2022/04/29 11:02:38;;;;;;;17.70;16.87;;;21.10;1.00;;;;;;5072620;28;20439;-77
2022/04/29 11:05:04;;;;;;;16.57;15.87;;;21.00;1.00;;;;;;5072812;28;20400;-76
2022/04/29 11:07:47;;;;;;;17.20;16.40;;;20.40;1.00;;;;;;5072652;28;20407;-76
2022/04/29 11:10:20;;;;;;;17.90;16.90;;;20.50;1.00;;;;;;5072922;28;20495;-76
2022/04/29 11:12:58;;;;;;;17.10;16.40;;;20.70;1.00;;;;;;5072792;28;20411;-76
2022/04/29 11:15:39;;;;;;;17.97;17.10;;;20.90;1.00;;;;;;5071492;28;20464;-76
2022/04/29 11:18:23;;;;;;;18.87;17.97;;;21.10;1.00;;;;;;5072771;28;20815;-75
2022/04/29 11:20:55;;;;;;;18.37;17.40;;;20.90;1.00;;;;;;5072798;28;20424;-76
2022/04/29 11:26:17;;;;;;;18.10;17.30;;;21.30;1.00;;;;;;5073023;28;20503;-75
2022/04/29 11:28:43;;;;;;;19.53;18.53;;;21.30;1.00;;;;;;5072451;28;20774;-76
2022/04/29 11:31:10;;;;;;;18.67;17.87;;;20.00;1.00;;;;;;5072512;28;20451;-75
2022/04/29 11:33:37;;;;;;;17.33;16.63;;;19.80;1.00;;;;;;5072379;28;20554;-76
2022/04/29 11:36:04;;;;;;;18.83;17.93;;;20.20;1.00;;;;;;5072657;28;20415;-76
2022/04/29 11:38:33;;;;;;;17.83;16.43;;;20.50;1.00;;;;;;5072115;28;20415;-76
2022/04/29 11:41:00;;;;;;;17.43;16.57;;;20.80;1.00;;;;;;5072669;28;20428;-76
2022/04/29 11:43:26;;;;;;;17.73;16.73;;;20.90;1.00;;;;;;5072569;28;20408;-75
2022/04/29 11:46:06;;;;;;;17.20;16.37;;;20.80;1.00;;;;;;5072903;28;20408;-76
2022/04/29 11:48:35;;;;;;;16.90;16.00;;;20.40;1.00;;;;;;5070849;28;20408;-76
2022/04/29 11:51:04;;;;;;;17.37;16.57;;;20.70;1.00;;;;;;5072414;28;20428;-76
2022/04/29 11:53:29;;;;;;;16.97;16.27;;;21.00;1.00;;;;;;5072482;28;20419;-76
2022/04/29 11:55:55;;;;;;;18.00;17.20;;;21.40;1.00;;;;;;5076430;28;20400;-75
2022/04/29 11:58:21;;;;;;;16.43;15.73;;;21.80;1.00;;;;;;5074646;28;20416;-76
2022/04/29 12:00:51;;;;;;;18.00;17.10;;;22.10;1.00;;;;;;5072149;28;20208;-75
2022/04/29 12:03:25;;;;;;;17.60;16.80;;;22.30;1.00;;;;;;5072925;28;20166;-76
2022/04/29 12:05:51;;;;;;;18.07;17.27;;;22.10;1.00;;;;;;5071976;28;20775;-75
2022/04/29 12:08:17;;;;;;;17.70;16.83;;;21.90;1.00;;;;;;5072089;28;20417;-76
2022/04/29 12:10:48;;;;;;;18.77;17.73;;;21.70;1.00;;;;;;5075928;28;20193;-76
2022/04/29 12:13:14;;;;;;;17.33;16.63;;;21.80;1.00;;;;;;5075539;28;20423;-76
2022/04/29 12:15:42;;;;;;;17.27;16.57;;;21.60;1.00;;;;;;5076054;28;20463;-75
2022/04/29 12:18:10;;;;;;;17.53;16.73;;;21.20;1.00;;;;;;5075956;28;20465;-75
2022/04/29 12:20:40;;;;;;;17.83;16.90;;;21.60;1.00;;;;;;5075933;28;20503;-76
2022/04/29 12:23:19;;;;;;;17.87;17.00;;;21.90;1.00;;;;;;5075003;28;20479;-76
2022/04/29 12:25:46;;;;;;;18.47;17.47;;;22.20;1.00;;;;;;5076744;28;20907;-76
2022/04/29 12:28:21;;;;;;;17.43;16.50;;;22.50;1.00;;;;;;5075446;28;20908;-76
2022/04/29 12:36:44;;;;;;;16.13;15.47;;;22.70;1.00;;;;;;5076081;28;20407;-76
2022/04/29 12:39:10;;;;;;;16.50;15.80;;;23.20;1.00;;;;;;5075572;28;20454;-77
2022/04/29 12:41:35;;;;;;;16.93;16.17;;;23.30;1.00;;;;;;5075520;28;20917;-76
2022/04/29 12:46:56;;;;;;;18.10;17.10;;;23.00;1.00;;;;;;5075523;28;20197;-75
2022/04/29 12:49:22;;;;;;;17.33;16.63;;;22.80;1.00;;;;;;5075266;28;20420;-75
2022/04/29 12:51:58;;;;;;;18.73;17.50;;;22.40;1.00;;;;;;5075200;28;20281;-75
2022/04/29 12:54:25;;;;;;;19.53;18.20;;;22.50;1.00;;;;;;5075374;28;20769;-75
2022/04/29 12:56:51;;;;;;;16.63;15.87;;;22.40;1.00;;;;;;5075394;28;20420;-75
2022/04/29 12:59:24;;;;;;;17.60;16.83;;;22.60;1.00;;;;;;5074897;28;20420;-75
2022/04/29 13:01:49;;;;;;;19.13;17.37;;;21.40;1.00;;;;;;5074928;28;20873;-75
2022/04/29 13:04:15;;;;;;;17.17;16.17;;;21.50;1.00;;;;;;5075139;28;20495;-75
2022/04/29 13:06:41;;;;;;;18.50;17.10;;;21.90;1.00;;;;;;5073772;28;20194;-75
2022/04/29 13:09:07;;;;;;;18.33;17.43;;;21.60;1.00;;;;;;5074568;28;20832;-75
2022/04/29 13:11:32;;;;;;;18.90;17.80;;;20.50;1.00;;;;;;5073659;28;20201;-75
2022/04/29 13:13:59;;;;;;;18.17;17.00;;;20.40;1.00;;;;;;5074947;28;20262;-75
2022/04/29 13:16:25;;;;;;;16.30;15.60;;;20.60;1.00;;;;;;5074923;28;20181;-75
2022/04/29 13:18:51;;;;;;;17.00;16.10;;;20.90;1.00;;;;;;5074456;28;20983;-75
2022/04/29 13:21:17;;;;;;;17.10;16.00;;;21.30;1.00;;;;;;5074051;28;20807;-75